sensor_id;sensor_type;location;lat;lon;timestamp;temperature;humidity
19622;DHT22;9958;33.196;-97.114;2024-03-22T00:00:36;16.30;99.90
19622;DHT22;9958;33.196;-97.114;2024-03-22T00:03:04;16.30;99.90
19622;DHT22;9958;33.196;-97.114;2024-03-22T00:05:32;16.30;99.90
19622;DHT22;9958;33.196;-97.114;2024-03-22T00:08:02;16.30;99.90
19622;DHT22;9958;33.196;-97.114;2024-03-22T00:10:29;16.20;99.90
19622;DHT22;9958;33.196;-97.114;2024-03-22T00:12:58;16.10;99.90
19622;DHT22;9958;33.196;-97.114;2024-03-22T00:15:25;16.10;99.90
19622;DHT22;9958;33.196;-97.114;2024-03-22T00:17:53;16.00;99.90
19622;DHT22;9958;33.196;-97.114;2024-03-22T00:20:21;16.00;99.90
19622;DHT22;9958;33.196;-97.114;2024-03-22T00:22:49;16.00;99.90
19622;DHT22;9958;33.196;-97.114;2024-03-22T00:25:19;16.00;99.90
19622;DHT22;9958;33.196;-97.114;2024-03-22T00:27:47;15.90;99.90
19622;DHT22;9958;33.196;-97.114;2024-03-22T00:30:15;15.90;99.90
19622;DHT22;9958;33.196;-97.114;2024-03-22T00:32:43;15.90;99.90
19622;DHT22;9958;33.196;-97.114;2024-03-22T00:35:10;15.90;99.90
19622;DHT22;9958;33.196;-97.114;2024-03-22T00:37:39;15.90;99.90
19622;DHT22;9958;33.196;-97.114;2024-03-22T00:40:07;15.90;99.90
19622;DHT22;9958;33.196;-97.114;2024-03-22T00:42:37;15.90;99.90
19622;DHT22;9958;33.196;-97.114;2024-03-22T00:45:04;15.90;99.90
19622;DHT22;9958;33.196;-97.114;2024-03-22T00:47:33;15.90;99.90
19622;DHT22;9958;33.196;-97.114;2024-03-22T00:50:00;15.90;99.90
19622;DHT22;9958;33.196;-97.114;2024-03-22T00:52:28;15.90;99.90
19622;DHT22;9958;33.196;-97.114;2024-03-22T00:54:55;15.90;99.90
19622;DHT22;9958;33.196;-97.114;2024-03-22T00:57:24;15.90;99.90
19622;DHT22;9958;33.196;-97.114;2024-03-22T00:59:53;15.80;99.90
19622;DHT22;9958;33.196;-97.114;2024-03-22T01:02:21;15.80;99.90
19622;DHT22;9958;33.196;-97.114;2024-03-22T01:04:48;15.80;99.90
19622;DHT22;9958;33.196;-97.114;2024-03-22T01:07:17;15.70;99.90
19622;DHT22;9958;33.196;-97.114;2024-03-22T01:09:44;15.70;99.90
19622;DHT22;9958;33.196;-97.114;2024-03-22T01:12:12;15.70;99.90
19622;DHT22;9958;33.196;-97.114;2024-03-22T01:14:39;15.60;99.90
19622;DHT22;9958;33.196;-97.114;2024-03-22T01:17:09;15.60;99.90
19622;DHT22;9958;33.196;-97.114;2024-03-22T01:19:36;15.50;99.90
19622;DHT22;9958;33.196;-97.114;2024-03-22T01:22:04;15.50;99.90
19622;DHT22;9958;33.196;-97.114;2024-03-22T01:24:31;15.40;99.90
19622;DHT22;9958;33.196;-97.114;2024-03-22T01:27:00;15.50;99.90
19622;DHT22;9958;33.196;-97.114;2024-03-22T01:29:27;15.40;99.90
19622;DHT22;9958;33.196;-97.114;2024-03-22T01:31:58;15.40;99.90
19622;DHT22;9958;33.196;-97.114;2024-03-22T01:34:27;15.40;99.90
19622;DHT22;9958;33.196;-97.114;2024-03-22T01:36:55;15.30;99.90
19622;DHT22;9958;33.196;-97.114;2024-03-22T01:39:22;15.30;99.90
19622;DHT22;9958;33.196;-97.114;2024-03-22T01:41:51;15.30;99.90
19622;DHT22;9958;33.196;-97.114;2024-03-22T01:44:18;15.30;99.90
19622;DHT22;9958;33.196;-97.114;2024-03-22T01:46:48;15.20;99.90
19622;DHT22;9958;33.196;-97.114;2024-03-22T01:49:16;15.20;99.90
19622;DHT22;9958;33.196;-97.114;2024-03-22T01:51:46;15.10;99.90
19622;DHT22;9958;33.196;-97.114;2024-03-22T01:54:15;15.10;99.90
19622;DHT22;9958;33.196;-97.114;2024-03-22T01:56:44;15.10;99.90
19622;DHT22;9958;33.196;-97.114;2024-03-22T01:59:11;15.00;99.90
19622;DHT22;9958;33.196;-97.114;2024-03-22T02:01:40;15.00;99.90
19622;DHT22;9958;33.196;-97.114;2024-03-22T02:04:07;15.00;99.90
19622;DHT22;9958;33.196;-97.114;2024-03-22T02:06:35;14.90;99.90
19622;DHT22;9958;33.196;-97.114;2024-03-22T02:09:04;14.90;99.90
19622;DHT22;9958;33.196;-97.114;2024-03-22T02:11:32;14.90;99.90
19622;DHT22;9958;33.196;-97.114;2024-03-22T02:13:59;14.80;99.90
19622;DHT22;9958;33.196;-97.114;2024-03-22T02:16:28;14.80;99.90
19622;DHT22;9958;33.196;-97.114;2024-03-22T02:18:55;14.80;99.90
19622;DHT22;9958;33.196;-97.114;2024-03-22T02:21:23;14.70;99.90
19622;DHT22;9958;33.196;-97.114;2024-03-22T02:23:52;14.70;99.90
19622;DHT22;9958;33.196;-97.114;2024-03-22T02:26:20;14.70;99.90
19622;DHT22;9958;33.196;-97.114;2024-03-22T02:28:47;14.60;99.90
19622;DHT22;9958;33.196;-97.114;2024-03-22T02:31:15;14.60;99.90
19622;DHT22;9958;33.196;-97.114;2024-03-22T02:33:42;14.60;99.90
19622;DHT22;9958;33.196;-97.114;2024-03-22T02:36:10;14.60;99.90
19622;DHT22;9958;33.196;-97.114;2024-03-22T02:38:38;14.60;99.90
19622;DHT22;9958;33.196;-97.114;2024-03-22T02:41:07;14.60;99.90
19622;DHT22;9958;33.196;-97.114;2024-03-22T02:43:34;14.60;99.90
19622;DHT22;9958;33.196;-97.114;2024-03-22T02:46:03;14.60;99.90
19622;DHT22;9958;33.196;-97.114;2024-03-22T02:48:30;14.60;99.90
19622;DHT22;9958;33.196;-97.114;2024-03-22T02:50:58;14.60;99.90
19622;DHT22;9958;33.196;-97.114;2024-03-22T02:53:25;14.60;99.90
19622;DHT22;9958;33.196;-97.114;2024-03-22T02:55:54;14.60;99.90
19622;DHT22;9958;33.196;-97.114;2024-03-22T02:58:22;14.60;99.90
19622;DHT22;9958;33.196;-97.114;2024-03-22T03:00:51;14.60;99.90
19622;DHT22;9958;33.196;-97.114;2024-03-22T03:03:18;14.60;99.90
19622;DHT22;9958;33.196;-97.114;2024-03-22T03:05:46;14.50;99.90
19622;DHT22;9958;33.196;-97.114;2024-03-22T03:08:13;14.50;99.90
19622;DHT22;9958;33.196;-97.114;2024-03-22T03:10:41;14.50;99.90
19622;DHT22;9958;33.196;-97.114;2024-03-22T03:13:08;14.60;99.90
19622;DHT22;9958;33.196;-97.114;2024-03-22T03:15:38;14.50;99.90
19622;DHT22;9958;33.196;-97.114;2024-03-22T03:18:06;14.50;99.90
19622;DHT22;9958;33.196;-97.114;2024-03-22T03:20:34;14.50;99.90
19622;DHT22;9958;33.196;-97.114;2024-03-22T03:23:01;14.50;99.90
19622;DHT22;9958;33.196;-97.114;2024-03-22T03:25:29;14.60;99.90
19622;DHT22;9958;33.196;-97.114;2024-03-22T03:27:56;14.50;99.90
19622;DHT22;9958;33.196;-97.114;2024-03-22T03:30:24;14.60;99.90
19622;DHT22;9958;33.196;-97.114;2024-03-22T03:32:53;14.50;99.90
19622;DHT22;9958;33.196;-97.114;2024-03-22T03:35:22;14.50;99.90
19622;DHT22;9958;33.196;-97.114;2024-03-22T03:37:49;14.60;99.90
19622;DHT22;9958;33.196;-97.114;2024-03-22T03:40:18;14.50;99.90
19622;DHT22;9958;33.196;-97.114;2024-03-22T03:42:45;14.50;99.90
19622;DHT22;9958;33.196;-97.114;2024-03-22T03:45:13;14.50;99.90
19622;DHT22;9958;33.196;-97.114;2024-03-22T03:47:40;14.50;99.90
19622;DHT22;9958;33.196;-97.114;2024-03-22T03:50:10;14.50;99.90
19622;DHT22;9958;33.196;-97.114;2024-03-22T03:52:37;14.50;99.90
19622;DHT22;9958;33.196;-97.114;2024-03-22T03:55:06;14.50;99.90
19622;DHT22;9958;33.196;-97.114;2024-03-22T03:57:33;14.50;99.90
19622;DHT22;9958;33.196;-97.114;2024-03-22T04:00:01;14.40;99.90
19622;DHT22;9958;33.196;-97.114;2024-03-22T04:02:28;14.40;99.90
19622;DHT22;9958;33.196;-97.114;2024-03-22T04:04:57;14.40;99.90
19622;DHT22;9958;33.196;-97.114;2024-03-22T04:07:25;14.40;99.90
19622;DHT22;9958;33.196;-97.114;2024-03-22T04:09:55;14.40;99.90
19622;DHT22;9958;33.196;-97.114;2024-03-22T04:12:22;14.30;99.90
19622;DHT22;9958;33.196;-97.114;2024-03-22T04:14:52;14.30;99.90
19622;DHT22;9958;33.196;-97.114;2024-03-22T04:17:19;14.20;99.90
19622;DHT22;9958;33.196;-97.114;2024-03-22T04:19:49;14.20;99.90
19622;DHT22;9958;33.196;-97.114;2024-03-22T04:22:16;14.20;99.90
19622;DHT22;9958;33.196;-97.114;2024-03-22T04:24:46;14.20;99.90
19622;DHT22;9958;33.196;-97.114;2024-03-22T04:27:13;14.10;99.90
19622;DHT22;9958;33.196;-97.114;2024-03-22T04:29:41;14.10;99.90
19622;DHT22;9958;33.196;-97.114;2024-03-22T04:32:09;14.10;99.90
19622;DHT22;9958;33.196;-97.114;2024-03-22T04:34:37;14.10;99.90
19622;DHT22;9958;33.196;-97.114;2024-03-22T04:37:05;14.10;99.90
19622;DHT22;9958;33.196;-97.114;2024-03-22T04:39:33;14.10;99.90
19622;DHT22;9958;33.196;-97.114;2024-03-22T04:42:03;14.10;99.90
19622;DHT22;9958;33.196;-97.114;2024-03-22T04:44:31;14.10;99.90
19622;DHT22;9958;33.196;-97.114;2024-03-22T04:47:00;14.10;99.90
19622;DHT22;9958;33.196;-97.114;2024-03-22T04:49:27;14.10;99.90
19622;DHT22;9958;33.196;-97.114;2024-03-22T04:51:55;14.10;99.90
19622;DHT22;9958;33.196;-97.114;2024-03-22T04:54:22;14.10;99.90
19622;DHT22;9958;33.196;-97.114;2024-03-22T04:56:50;14.10;99.90
19622;DHT22;9958;33.196;-97.114;2024-03-22T04:59:19;14.20;99.90
19622;DHT22;9958;33.196;-97.114;2024-03-22T05:01:47;14.20;99.90
19622;DHT22;9958;33.196;-97.114;2024-03-22T05:04:14;14.20;99.90
19622;DHT22;9958;33.196;-97.114;2024-03-22T05:06:43;14.20;99.90
19622;DHT22;9958;33.196;-97.114;2024-03-22T05:09:10;14.20;99.90
19622;DHT22;9958;33.196;-97.114;2024-03-22T05:11:38;14.20;99.90
19622;DHT22;9958;33.196;-97.114;2024-03-22T05:14:06;14.20;99.90
19622;DHT22;9958;33.196;-97.114;2024-03-22T05:16:35;14.20;99.90
19622;DHT22;9958;33.196;-97.114;2024-03-22T05:19:04;14.20;99.90
19622;DHT22;9958;33.196;-97.114;2024-03-22T05:21:31;14.20;99.90
19622;DHT22;9958;33.196;-97.114;2024-03-22T05:23:59;14.30;99.90
19622;DHT22;9958;33.196;-97.114;2024-03-22T05:26:26;14.30;99.90
19622;DHT22;9958;33.196;-97.114;2024-03-22T05:28:54;14.30;99.90
19622;DHT22;9958;33.196;-97.114;2024-03-22T05:31:21;14.30;99.90
19622;DHT22;9958;33.196;-97.114;2024-03-22T05:33:51;14.30;99.90
19622;DHT22;9958;33.196;-97.114;2024-03-22T05:36:18;14.30;99.90
19622;DHT22;9958;33.196;-97.114;2024-03-22T05:38:46;14.30;99.90
19622;DHT22;9958;33.196;-97.114;2024-03-22T05:41:13;14.30;99.90
19622;DHT22;9958;33.196;-97.114;2024-03-22T05:43:42;14.30;99.90
19622;DHT22;9958;33.196;-97.114;2024-03-22T05:46:09;14.30;99.90
19622;DHT22;9958;33.196;-97.114;2024-03-22T05:48:37;14.30;99.90
19622;DHT22;9958;33.196;-97.114;2024-03-22T05:51:06;14.30;99.90
19622;DHT22;9958;33.196;-97.114;2024-03-22T05:53:34;14.30;99.90
19622;DHT22;9958;33.196;-97.114;2024-03-22T05:56:01;14.30;99.90
19622;DHT22;9958;33.196;-97.114;2024-03-22T05:58:29;14.30;99.90
19622;DHT22;9958;33.196;-97.114;2024-03-22T06:00:57;14.30;99.90
19622;DHT22;9958;33.196;-97.114;2024-03-22T06:03:25;14.30;99.90
19622;DHT22;9958;33.196;-97.114;2024-03-22T06:05:52;14.30;99.90
19622;DHT22;9958;33.196;-97.114;2024-03-22T06:08:27;14.30;99.90
19622;DHT22;9958;33.196;-97.114;2024-03-22T06:10:55;14.30;99.90
19622;DHT22;9958;33.196;-97.114;2024-03-22T06:13:23;14.30;99.90
19622;DHT22;9958;33.196;-97.114;2024-03-22T06:15:50;14.30;99.90
19622;DHT22;9958;33.196;-97.114;2024-03-22T06:18:19;14.30;99.90
19622;DHT22;9958;33.196;-97.114;2024-03-22T06:20:46;14.30;99.90
19622;DHT22;9958;33.196;-97.114;2024-03-22T06:23:14;14.30;99.90
19622;DHT22;9958;33.196;-97.114;2024-03-22T06:25:51;14.30;99.90
19622;DHT22;9958;33.196;-97.114;2024-03-22T06:28:20;14.30;99.90
19622;DHT22;9958;33.196;-97.114;2024-03-22T06:30:47;14.30;99.90
19622;DHT22;9958;33.196;-97.114;2024-03-22T06:33:15;14.30;99.90
19622;DHT22;9958;33.196;-97.114;2024-03-22T06:35:42;14.30;99.90
19622;DHT22;9958;33.196;-97.114;2024-03-22T06:38:11;14.30;99.90
19622;DHT22;9958;33.196;-97.114;2024-03-22T06:40:38;14.20;99.90
19622;DHT22;9958;33.196;-97.114;2024-03-22T06:43:07;14.30;99.90
19622;DHT22;9958;33.196;-97.114;2024-03-22T06:45:35;14.20;99.90
19622;DHT22;9958;33.196;-97.114;2024-03-22T06:48:04;14.20;99.90
19622;DHT22;9958;33.196;-97.114;2024-03-22T06:50:31;14.20;99.90
19622;DHT22;9958;33.196;-97.114;2024-03-22T06:52:59;14.20;99.90
19622;DHT22;9958;33.196;-97.114;2024-03-22T06:55:26;14.20;99.90
19622;DHT22;9958;33.196;-97.114;2024-03-22T06:57:54;14.30;99.90
19622;DHT22;9958;33.196;-97.114;2024-03-22T07:00:23;14.30;99.90
19622;DHT22;9958;33.196;-97.114;2024-03-22T07:02:51;14.30;99.90
19622;DHT22;9958;33.196;-97.114;2024-03-22T07:05:19;14.30;99.90
19622;DHT22;9958;33.196;-97.114;2024-03-22T07:07:48;14.30;99.90
19622;DHT22;9958;33.196;-97.114;2024-03-22T07:10:16;14.30;99.90
19622;DHT22;9958;33.196;-97.114;2024-03-22T07:12:44;14.30;99.90
19622;DHT22;9958;33.196;-97.114;2024-03-22T07:15:11;14.30;99.90
19622;DHT22;9958;33.196;-97.114;2024-03-22T07:17:41;14.30;99.90
19622;DHT22;9958;33.196;-97.114;2024-03-22T07:20:09;14.30;99.90
19622;DHT22;9958;33.196;-97.114;2024-03-22T07:22:37;14.30;99.90
19622;DHT22;9958;33.196;-97.114;2024-03-22T07:25:05;14.30;99.90
19622;DHT22;9958;33.196;-97.114;2024-03-22T07:27:35;14.30;99.90
19622;DHT22;9958;33.196;-97.114;2024-03-22T07:30:03;14.30;99.90
19622;DHT22;9958;33.196;-97.114;2024-03-22T07:32:31;14.30;99.90
19622;DHT22;9958;33.196;-97.114;2024-03-22T07:35:00;14.30;99.90
19622;DHT22;9958;33.196;-97.114;2024-03-22T07:37:29;14.20;99.90
19622;DHT22;9958;33.196;-97.114;2024-03-22T07:39:56;14.20;99.90
19622;DHT22;9958;33.196;-97.114;2024-03-22T07:42:24;14.20;99.90
19622;DHT22;9958;33.196;-97.114;2024-03-22T07:44:52;14.20;99.90
19622;DHT22;9958;33.196;-97.114;2024-03-22T07:47:20;14.20;99.90
19622;DHT22;9958;33.196;-97.114;2024-03-22T07:49:47;14.20;99.90
19622;DHT22;9958;33.196;-97.114;2024-03-22T07:52:17;14.20;99.90
19622;DHT22;9958;33.196;-97.114;2024-03-22T07:54:44;14.20;99.90
19622;DHT22;9958;33.196;-97.114;2024-03-22T07:57:12;14.20;99.90
19622;DHT22;9958;33.196;-97.114;2024-03-22T07:59:39;14.20;99.90
19622;DHT22;9958;33.196;-97.114;2024-03-22T08:02:10;14.10;99.90
19622;DHT22;9958;33.196;-97.114;2024-03-22T08:04:37;14.10;99.90
19622;DHT22;9958;33.196;-97.114;2024-03-22T08:07:05;14.20;99.90
19622;DHT22;9958;33.196;-97.114;2024-03-22T08:09:34;14.20;99.90
19622;DHT22;9958;33.196;-97.114;2024-03-22T08:12:02;14.10;99.90
19622;DHT22;9958;33.196;-97.114;2024-03-22T08:14:29;14.10;99.90
19622;DHT22;9958;33.196;-97.114;2024-03-22T08:16:58;14.10;99.90
19622;DHT22;9958;33.196;-97.114;2024-03-22T08:19:25;14.10;99.90
19622;DHT22;9958;33.196;-97.114;2024-03-22T08:21:53;14.10;99.90
19622;DHT22;9958;33.196;-97.114;2024-03-22T08:24:20;14.10;99.90
19622;DHT22;9958;33.196;-97.114;2024-03-22T08:26:50;14.10;99.90
19622;DHT22;9958;33.196;-97.114;2024-03-22T08:29:17;14.10;99.90
19622;DHT22;9958;33.196;-97.114;2024-03-22T08:31:45;14.00;99.90
19622;DHT22;9958;33.196;-97.114;2024-03-22T08:34:12;14.00;99.90
19622;DHT22;9958;33.196;-97.114;2024-03-22T08:36:41;14.00;99.90
19622;DHT22;9958;33.196;-97.114;2024-03-22T08:39:08;14.00;99.90
19622;DHT22;9958;33.196;-97.114;2024-03-22T08:41:36;14.00;99.90
19622;DHT22;9958;33.196;-97.114;2024-03-22T08:44:05;14.00;99.90
19622;DHT22;9958;33.196;-97.114;2024-03-22T08:46:33;14.00;99.90
19622;DHT22;9958;33.196;-97.114;2024-03-22T08:49:00;13.90;99.90
19622;DHT22;9958;33.196;-97.114;2024-03-22T08:51:29;13.90;99.90
19622;DHT22;9958;33.196;-97.114;2024-03-22T08:53:56;13.90;99.90
19622;DHT22;9958;33.196;-97.114;2024-03-22T08:56:25;13.80;99.90
19622;DHT22;9958;33.196;-97.114;2024-03-22T08:58:52;13.80;99.90
19622;DHT22;9958;33.196;-97.114;2024-03-22T09:01:22;13.80;99.90
19622;DHT22;9958;33.196;-97.114;2024-03-22T09:03:49;13.70;99.90
19622;DHT22;9958;33.196;-97.114;2024-03-22T09:06:17;13.70;99.90
19622;DHT22;9958;33.196;-97.114;2024-03-22T09:08:44;13.70;99.90
19622;DHT22;9958;33.196;-97.114;2024-03-22T09:11:12;13.70;99.90
19622;DHT22;9958;33.196;-97.114;2024-03-22T09:13:39;13.70;99.90
19622;DHT22;9958;33.196;-97.114;2024-03-22T09:16:08;13.70;99.90
19622;DHT22;9958;33.196;-97.114;2024-03-22T09:18:37;13.70;99.90
19622;DHT22;9958;33.196;-97.114;2024-03-22T09:21:05;13.60;99.90
19622;DHT22;9958;33.196;-97.114;2024-03-22T09:23:35;13.60;99.90
19622;DHT22;9958;33.196;-97.114;2024-03-22T09:26:03;13.60;99.90
19622;DHT22;9958;33.196;-97.114;2024-03-22T09:28:30;13.70;99.90
19622;DHT22;9958;33.196;-97.114;2024-03-22T09:31:02;13.60;99.90
19622;DHT22;9958;33.196;-97.114;2024-03-22T09:33:30;13.70;99.90
19622;DHT22;9958;33.196;-97.114;2024-03-22T09:35:59;13.70;99.90
19622;DHT22;9958;33.196;-97.114;2024-03-22T09:38:27;13.70;99.90
19622;DHT22;9958;33.196;-97.114;2024-03-22T09:40:55;13.70;99.90
19622;DHT22;9958;33.196;-97.114;2024-03-22T09:43:23;13.70;99.90
19622;DHT22;9958;33.196;-97.114;2024-03-22T09:45:51;13.70;99.90
19622;DHT22;9958;33.196;-97.114;2024-03-22T09:48:19;13.80;99.90
19622;DHT22;9958;33.196;-97.114;2024-03-22T09:50:47;13.80;99.90
19622;DHT22;9958;33.196;-97.114;2024-03-22T09:53:18;13.80;99.90
19622;DHT22;9958;33.196;-97.114;2024-03-22T09:55:48;13.80;99.90
19622;DHT22;9958;33.196;-97.114;2024-03-22T09:58:15;13.90;99.90
19622;DHT22;9958;33.196;-97.114;2024-03-22T10:00:44;13.90;99.90
19622;DHT22;9958;33.196;-97.114;2024-03-22T10:03:11;13.90;99.90
19622;DHT22;9958;33.196;-97.114;2024-03-22T10:05:40;13.90;99.90
19622;DHT22;9958;33.196;-97.114;2024-03-22T10:08:07;13.90;99.90
19622;DHT22;9958;33.196;-97.114;2024-03-22T10:10:37;13.90;99.90
19622;DHT22;9958;33.196;-97.114;2024-03-22T10:13:04;13.90;99.90
19622;DHT22;9958;33.196;-97.114;2024-03-22T10:15:32;14.00;99.90
19622;DHT22;9958;33.196;-97.114;2024-03-22T10:17:59;14.00;99.90
19622;DHT22;9958;33.196;-97.114;2024-03-22T10:20:28;14.00;99.90
19622;DHT22;9958;33.196;-97.114;2024-03-22T10:22:56;14.00;99.90
19622;DHT22;9958;33.196;-97.114;2024-03-22T10:25:26;14.00;99.90
19622;DHT22;9958;33.196;-97.114;2024-03-22T10:27:56;14.10;99.90
19622;DHT22;9958;33.196;-97.114;2024-03-22T10:30:25;14.10;99.90
19622;DHT22;9958;33.196;-97.114;2024-03-22T10:32:53;14.10;99.90
19622;DHT22;9958;33.196;-97.114;2024-03-22T10:35:22;14.10;99.90
19622;DHT22;9958;33.196;-97.114;2024-03-22T10:37:49;14.10;99.90
19622;DHT22;9958;33.196;-97.114;2024-03-22T10:40:19;14.10;99.90
19622;DHT22;9958;33.196;-97.114;2024-03-22T10:42:47;14.20;99.90
19622;DHT22;9958;33.196;-97.114;2024-03-22T10:45:17;14.20;99.90
19622;DHT22;9958;33.196;-97.114;2024-03-22T10:47:44;14.20;99.90
19622;DHT22;9958;33.196;-97.114;2024-03-22T10:50:14;14.20;99.90
19622;DHT22;9958;33.196;-97.114;2024-03-22T10:52:47;14.20;99.90
19622;DHT22;9958;33.196;-97.114;2024-03-22T10:55:20;14.20;99.90
19622;DHT22;9958;33.196;-97.114;2024-03-22T10:57:49;14.30;99.90
19622;DHT22;9958;33.196;-97.114;2024-03-22T11:00:27;14.20;99.90
19622;DHT22;9958;33.196;-97.114;2024-03-22T11:02:55;14.30;99.90
19622;DHT22;9958;33.196;-97.114;2024-03-22T11:05:25;14.30;99.90
19622;DHT22;9958;33.196;-97.114;2024-03-22T11:07:59;14.30;99.90
19622;DHT22;9958;33.196;-97.114;2024-03-22T11:10:33;14.30;99.90
19622;DHT22;9958;33.196;-97.114;2024-03-22T11:13:01;14.30;99.90
19622;DHT22;9958;33.196;-97.114;2024-03-22T11:15:32;14.30;99.90
19622;DHT22;9958;33.196;-97.114;2024-03-22T11:18:00;14.30;99.90
19622;DHT22;9958;33.196;-97.114;2024-03-22T11:20:28;14.30;99.90
19622;DHT22;9958;33.196;-97.114;2024-03-22T11:22:56;14.30;99.90
19622;DHT22;9958;33.196;-97.114;2024-03-22T11:25:25;14.30;99.90
19622;DHT22;9958;33.196;-97.114;2024-03-22T11:27:52;14.30;99.90
19622;DHT22;9958;33.196;-97.114;2024-03-22T11:30:21;14.30;99.90
19622;DHT22;9958;33.196;-97.114;2024-03-22T11:32:53;14.40;99.90
19622;DHT22;9958;33.196;-97.114;2024-03-22T11:35:22;14.30;99.90
19622;DHT22;9958;33.196;-97.114;2024-03-22T11:37:50;14.30;99.90
19622;DHT22;9958;33.196;-97.114;2024-03-22T11:40:18;14.30;99.90
19622;DHT22;9958;33.196;-97.114;2024-03-22T11:42:49;14.30;99.90
19622;DHT22;9958;33.196;-97.114;2024-03-22T11:45:19;14.30;99.90
19622;DHT22;9958;33.196;-97.114;2024-03-22T11:47:47;14.30;99.90
19622;DHT22;9958;33.196;-97.114;2024-03-22T11:50:17;14.30;99.90
19622;DHT22;9958;33.196;-97.114;2024-03-22T11:52:45;14.30;99.90
19622;DHT22;9958;33.196;-97.114;2024-03-22T11:55:15;14.30;99.90
19622;DHT22;9958;33.196;-97.114;2024-03-22T11:57:47;14.30;99.90
19622;DHT22;9958;33.196;-97.114;2024-03-22T12:00:18;14.20;99.90
19622;DHT22;9958;33.196;-97.114;2024-03-22T12:02:45;14.20;99.90
19622;DHT22;9958;33.196;-97.114;2024-03-22T12:05:13;14.20;99.90
19622;DHT22;9958;33.196;-97.114;2024-03-22T12:07:42;14.20;99.90
19622;DHT22;9958;33.196;-97.114;2024-03-22T12:10:10;14.20;99.90
19622;DHT22;9958;33.196;-97.114;2024-03-22T12:12:37;14.20;99.90
19622;DHT22;9958;33.196;-97.114;2024-03-22T12:15:06;14.20;99.90
19622;DHT22;9958;33.196;-97.114;2024-03-22T12:17:33;14.20;99.90
19622;DHT22;9958;33.196;-97.114;2024-03-22T12:20:03;14.20;99.90
19622;DHT22;9958;33.196;-97.114;2024-03-22T12:22:30;14.10;99.90
19622;DHT22;9958;33.196;-97.114;2024-03-22T12:25:00;14.20;99.90
19622;DHT22;9958;33.196;-97.114;2024-03-22T12:27:28;14.20;99.90
19622;DHT22;9958;33.196;-97.114;2024-03-22T12:29:56;14.20;99.90
19622;DHT22;9958;33.196;-97.114;2024-03-22T12:32:23;14.10;99.90
19622;DHT22;9958;33.196;-97.114;2024-03-22T12:34:51;14.10;99.90
19622;DHT22;9958;33.196;-97.114;2024-03-22T12:37:18;14.10;99.90
19622;DHT22;9958;33.196;-97.114;2024-03-22T12:39:47;14.10;99.90
19622;DHT22;9958;33.196;-97.114;2024-03-22T12:42:15;14.10;99.90
19622;DHT22;9958;33.196;-97.114;2024-03-22T12:44:43;14.10;99.90
19622;DHT22;9958;33.196;-97.114;2024-03-22T12:47:10;14.10;99.90
19622;DHT22;9958;33.196;-97.114;2024-03-22T12:49:39;14.10;99.90
19622;DHT22;9958;33.196;-97.114;2024-03-22T12:52:07;14.10;99.90
19622;DHT22;9958;33.196;-97.114;2024-03-22T12:54:36;14.10;99.90
19622;DHT22;9958;33.196;-97.114;2024-03-22T12:57:04;14.10;99.90
19622;DHT22;9958;33.196;-97.114;2024-03-22T12:59:33;14.10;99.90
19622;DHT22;9958;33.196;-97.114;2024-03-22T13:02:01;14.00;99.90
19622;DHT22;9958;33.196;-97.114;2024-03-22T13:04:29;14.00;99.90
19622;DHT22;9958;33.196;-97.114;2024-03-22T13:06:56;14.10;99.90
19622;DHT22;9958;33.196;-97.114;2024-03-22T13:09:24;14.00;99.90
19622;DHT22;9958;33.196;-97.114;2024-03-22T13:11:51;14.00;99.90
19622;DHT22;9958;33.196;-97.114;2024-03-22T13:14:20;14.10;99.90
19622;DHT22;9958;33.196;-97.114;2024-03-22T13:16:48;14.10;99.90
19622;DHT22;9958;33.196;-97.114;2024-03-22T13:19:16;14.10;99.90
19622;DHT22;9958;33.196;-97.114;2024-03-22T13:21:44;14.10;99.90
19622;DHT22;9958;33.196;-97.114;2024-03-22T13:24:15;14.10;99.90
19622;DHT22;9958;33.196;-97.114;2024-03-22T13:26:42;14.10;99.90
19622;DHT22;9958;33.196;-97.114;2024-03-22T13:29:10;14.10;99.90
19622;DHT22;9958;33.196;-97.114;2024-03-22T13:31:38;14.10;99.90
19622;DHT22;9958;33.196;-97.114;2024-03-22T13:34:08;14.20;99.90
19622;DHT22;9958;33.196;-97.114;2024-03-22T13:36:35;14.20;99.90
19622;DHT22;9958;33.196;-97.114;2024-03-22T13:39:04;14.30;99.90
19622;DHT22;9958;33.196;-97.114;2024-03-22T13:41:31;14.30;99.90
19622;DHT22;9958;33.196;-97.114;2024-03-22T13:44:01;14.40;99.90
19622;DHT22;9958;33.196;-97.114;2024-03-22T13:46:30;14.50;99.90
19622;DHT22;9958;33.196;-97.114;2024-03-22T13:48:58;14.50;99.90
19622;DHT22;9958;33.196;-97.114;2024-03-22T13:51:26;14.50;99.90
19622;DHT22;9958;33.196;-97.114;2024-03-22T13:53:55;14.60;99.90
19622;DHT22;9958;33.196;-97.114;2024-03-22T13:56:22;14.60;99.90
19622;DHT22;9958;33.196;-97.114;2024-03-22T13:58:50;14.70;99.90
19622;DHT22;9958;33.196;-97.114;2024-03-22T14:01:17;14.80;99.90
19622;DHT22;9958;33.196;-97.114;2024-03-22T14:03:46;15.00;99.90
19622;DHT22;9958;33.196;-97.114;2024-03-22T14:06:13;15.10;99.90
19622;DHT22;9958;33.196;-97.114;2024-03-22T14:08:42;15.30;99.90
19622;DHT22;9958;33.196;-97.114;2024-03-22T14:11:09;15.40;99.90
19622;DHT22;9958;33.196;-97.114;2024-03-22T14:13:38;15.50;99.90
19622;DHT22;9958;33.196;-97.114;2024-03-22T14:16:05;15.60;99.90
19622;DHT22;9958;33.196;-97.114;2024-03-22T14:18:34;15.60;99.90
19622;DHT22;9958;33.196;-97.114;2024-03-22T14:21:02;15.70;99.90
19622;DHT22;9958;33.196;-97.114;2024-03-22T14:23:30;15.70;99.90
19622;DHT22;9958;33.196;-97.114;2024-03-22T14:25:59;15.70;99.90
19622;DHT22;9958;33.196;-97.114;2024-03-22T14:28:27;15.60;99.90
19622;DHT22;9958;33.196;-97.114;2024-03-22T14:30:54;15.50;99.90
19622;DHT22;9958;33.196;-97.114;2024-03-22T14:33:22;15.40;99.90
19622;DHT22;9958;33.196;-97.114;2024-03-22T14:35:49;15.40;99.90
19622;DHT22;9958;33.196;-97.114;2024-03-22T14:38:18;15.40;99.90
19622;DHT22;9958;33.196;-97.114;2024-03-22T14:40:45;15.30;99.90
19622;DHT22;9958;33.196;-97.114;2024-03-22T14:43:16;15.30;99.90
19622;DHT22;9958;33.196;-97.114;2024-03-22T14:45:43;15.30;99.90
19622;DHT22;9958;33.196;-97.114;2024-03-22T14:48:11;15.40;99.90
19622;DHT22;9958;33.196;-97.114;2024-03-22T14:50:39;15.40;99.90
19622;DHT22;9958;33.196;-97.114;2024-03-22T14:53:07;15.40;99.90
19622;DHT22;9958;33.196;-97.114;2024-03-22T14:55:34;15.50;99.90
19622;DHT22;9958;33.196;-97.114;2024-03-22T14:58:04;15.50;99.90
19622;DHT22;9958;33.196;-97.114;2024-03-22T15:00:32;15.50;99.90
19622;DHT22;9958;33.196;-97.114;2024-03-22T15:03:01;15.60;99.90
19622;DHT22;9958;33.196;-97.114;2024-03-22T15:05:28;15.70;99.90
19622;DHT22;9958;33.196;-97.114;2024-03-22T15:07:56;15.70;99.90
19622;DHT22;9958;33.196;-97.114;2024-03-22T15:10:24;15.80;99.90
19622;DHT22;9958;33.196;-97.114;2024-03-22T15:12:52;15.80;99.90
19622;DHT22;9958;33.196;-97.114;2024-03-22T15:15:19;15.90;99.90
19622;DHT22;9958;33.196;-97.114;2024-03-22T15:17:49;15.90;99.90
19622;DHT22;9958;33.196;-97.114;2024-03-22T15:20:16;16.00;99.90